createdAt,value
2022-12-28T00:01:54.411Z,13.68
2022-12-28T00:04:25.531Z,13.69
2022-12-28T00:06:54.040Z,13.68
2022-12-28T00:09:26.340Z,13.68
2022-12-28T00:11:54.645Z,13.66
2022-12-28T00:14:26.109Z,13.67
2022-12-28T00:16:54.381Z,13.66
2022-12-28T00:19:25.685Z,13.65
2022-12-28T00:21:55.273Z,13.65
2022-12-28T00:24:26.025Z,13.63
2022-12-28T00:26:56.638Z,13.60
2022-12-28T00:29:25.361Z,13.57
2022-12-28T00:31:53.718Z,13.53
2022-12-28T00:34:25.009Z,13.53
2022-12-28T00:37:09.574Z,13.50
2022-12-28T00:39:41.964Z,13.51
2022-12-28T00:42:11.237Z,13.50
2022-12-28T00:44:39.843Z,13.51
2022-12-28T00:47:08.635Z,13.51
2022-12-28T00:49:36.957Z,13.49
2022-12-28T00:52:05.639Z,13.41
2022-12-28T00:54:34.027Z,13.37
2022-12-28T00:57:06.460Z,13.37
2022-12-28T00:59:34.781Z,13.40
2022-12-28T01:02:09.729Z,13.42
2022-12-28T01:04:38.075Z,13.43
2022-12-28T01:07:06.362Z,13.41
2022-12-28T01:09:36.862Z,13.40
2022-12-28T01:12:05.511Z,13.40
2022-12-28T01:14:34.069Z,13.40
2022-12-28T01:17:09.538Z,13.39
2022-12-28T01:19:37.852Z,13.39
2022-12-28T01:22:06.359Z,13.37
2022-12-28T01:24:34.734Z,13.35
2022-12-28T01:27:17.351Z,13.34
2022-12-28T01:29:45.694Z,13.25
2022-12-28T01:32:14.040Z,13.19
2022-12-28T01:34:44.365Z,13.16
2022-12-28T01:37:21.147Z,13.17
2022-12-28T01:39:49.687Z,13.20
2022-12-28T01:42:23.360Z,13.18
2022-12-28T01:44:52.755Z,13.06
2022-12-28T01:47:37.173Z,12.96
2022-12-28T01:50:21.170Z,12.87
2022-12-28T01:52:53.808Z,12.80
2022-12-28T01:55:30.040Z,12.74
2022-12-28T01:58:01.007Z,12.64
2022-12-28T02:00:30.030Z,12.55
2022-12-28T02:03:12.233Z,12.47
2022-12-28T02:05:44.430Z,12.38
2022-12-28T02:08:19.836Z,12.34
2022-12-28T02:10:48.804Z,12.28
2022-12-28T02:13:18.528Z,12.25
2022-12-28T02:15:47.939Z,12.20
2022-12-28T02:18:23.385Z,12.17
2022-12-28T02:21:25.746Z,12.21
2022-12-28T02:24:27.211Z,12.17
2022-12-28T02:27:31.874Z,12.11
2022-12-28T02:30:08.883Z,12.08
2022-12-28T02:32:52.038Z,12.11
2022-12-28T02:35:29.451Z,12.19
2022-12-28T02:38:33.010Z,12.30
2022-12-28T02:41:19.942Z,12.39
2022-12-28T02:43:56.890Z,12.42
2022-12-28T02:46:52.312Z,12.46
2022-12-28T02:49:48.740Z,12.50
2022-12-28T02:52:53.806Z,12.50
2022-12-28T02:55:57.062Z,12.50
2022-12-28T02:58:40.150Z,12.49
2022-12-28T03:01:21.390Z,12.46
2022-12-28T03:04:21.827Z,12.48
2022-12-28T03:07:35.877Z,12.52
2022-12-28T03:10:26.027Z,12.51
2022-12-28T03:13:34.042Z,12.46
2022-12-28T03:16:36.001Z,12.35
2022-12-28T03:19:28.331Z,12.27
2022-12-28T03:22:19.314Z,12.20
2022-12-28T03:25:07.549Z,12.14
2022-12-28T03:27:56.853Z,12.08
2022-12-28T03:30:49.477Z,12.06
2022-12-28T03:33:17.907Z,12.07
2022-12-28T03:36:03.760Z,12.15
2022-12-28T03:38:46.008Z,12.26
2022-12-28T03:41:37.194Z,12.31
2022-12-28T03:44:17.380Z,12.36
2022-12-28T03:47:16.323Z,12.37
2022-12-28T03:49:44.707Z,12.38
2022-12-28T03:52:24.373Z,12.40
2022-12-28T03:55:01.130Z,12.34
2022-12-28T03:57:32.560Z,12.28
2022-12-28T04:00:00.447Z,12.27
2022-12-28T04:02:32.167Z,12.29
2022-12-28T04:05:00.546Z,12.26
2022-12-28T04:07:29.604Z,12.21
2022-12-28T04:09:57.822Z,12.22
2022-12-28T04:12:32.089Z,12.24
2022-12-28T04:15:00.465Z,12.17
2022-12-28T04:17:31.510Z,12.11
2022-12-28T04:20:02.440Z,12.02
2022-12-28T04:22:30.711Z,12.03
2022-12-28T04:25:01.936Z,12.00
2022-12-28T04:27:33.217Z,11.98
2022-12-28T04:30:01.483Z,12.00
2022-12-28T04:32:32.736Z,12.07
2022-12-28T04:35:01.032Z,12.13
2022-12-28T04:37:31.738Z,12.18
2022-12-28T04:40:00.437Z,12.20
2022-12-28T04:42:31.592Z,12.24
2022-12-28T04:45:02.800Z,12.26
2022-12-28T04:47:31.099Z,12.28
2022-12-28T04:50:01.670Z,12.28
2022-12-28T04:52:34.966Z,12.27
2022-12-28T04:55:03.288Z,12.27
2022-12-28T04:57:31.586Z,12.26
2022-12-28T05:00:02.841Z,12.25
2022-12-28T05:02:34.113Z,12.21
2022-12-28T05:05:02.514Z,12.13
2022-12-28T05:07:33.884Z,11.98
2022-12-28T05:10:02.113Z,11.85
2022-12-28T05:12:33.349Z,11.73
2022-12-28T05:15:01.616Z,11.56
2022-12-28T05:17:33.540Z,11.43
2022-12-28T05:20:02.066Z,11.35
2022-12-28T05:22:36.303Z,11.29
2022-12-28T05:25:15.170Z,11.34
2022-12-28T05:27:43.428Z,11.38
2022-12-28T05:30:28.327Z,11.46
2022-12-28T05:33:02.058Z,11.50
2022-12-28T05:35:33.337Z,11.58
2022-12-28T05:38:01.595Z,11.67
2022-12-28T05:40:34.274Z,11.75
2022-12-28T05:43:02.509Z,11.81
2022-12-28T05:45:33.660Z,11.89
2022-12-28T05:48:04.666Z,11.92
2022-12-28T05:50:32.926Z,11.93
2022-12-28T05:53:04.191Z,11.95
2022-12-28T05:55:32.398Z,11.97
2022-12-28T05:58:03.693Z,11.99
2022-12-28T06:00:32.000Z,11.98
2022-12-28T06:03:03.679Z,11.98
2022-12-28T06:05:32.143Z,11.99
2022-12-28T06:08:03.502Z,11.99
2022-12-28T06:10:34.829Z,11.95
2022-12-28T06:13:06.387Z,11.89
2022-12-28T06:15:34.233Z,11.83
2022-12-28T06:18:02.551Z,11.82
2022-12-28T06:20:34.007Z,11.79
2022-12-28T06:23:01.960Z,11.74
2022-12-28T06:25:32.863Z,11.74
2022-12-28T06:28:03.409Z,11.73
2022-12-28T06:30:34.483Z,11.72
2022-12-28T06:33:02.706Z,11.68
2022-12-28T06:35:34.013Z,11.67
2022-12-28T06:38:02.545Z,11.57
2022-12-28T06:41:02.531Z,11.51
2022-12-28T06:43:28.908Z,11.49
2022-12-28T06:46:07.690Z,11.48
2022-12-28T06:48:37.097Z,11.47
2022-12-28T06:51:17.356Z,11.49
2022-12-28T06:53:46.769Z,11.47
2022-12-28T06:56:32.775Z,11.47
2022-12-28T06:59:05.019Z,11.47
2022-12-28T07:01:41.873Z,11.48
2022-12-28T07:04:11.961Z,11.43
2022-12-28T07:06:43.047Z,11.39
2022-12-28T07:09:17.335Z,11.32
2022-12-28T07:11:46.222Z,11.30
2022-12-28T07:14:20.237Z,11.29
2022-12-28T07:16:49.757Z,11.26
2022-12-28T07:19:27.417Z,11.28
2022-12-28T07:22:04.569Z,11.30
2022-12-28T07:24:33.026Z,11.26
2022-12-28T07:27:04.401Z,11.25
2022-12-28T07:29:32.372Z,11.26
2022-12-28T07:32:01.890Z,11.29
2022-12-28T07:34:37.555Z,11.35
2022-12-28T07:37:05.841Z,11.38
2022-12-28T07:39:37.376Z,11.40
2022-12-28T07:42:07.779Z,11.35
2022-12-28T07:44:38.313Z,11.28
2022-12-28T07:47:07.002Z,11.23
2022-12-28T07:49:35.574Z,11.16
2022-12-28T07:52:04.023Z,11.05
2022-12-28T07:54:35.564Z,10.95
2022-12-28T07:57:05.728Z,10.84
2022-12-28T07:59:37.052Z,10.75
2022-12-28T08:02:05.565Z,10.71
2022-12-28T08:04:33.940Z,10.74
2022-12-28T08:07:05.411Z,10.71
2022-12-28T08:09:36.059Z,10.64
2022-12-28T08:12:04.529Z,10.57
2022-12-28T08:14:35.571Z,10.53
2022-12-28T08:17:04.141Z,10.48
2022-12-28T08:19:32.504Z,10.48
2022-12-28T08:22:03.876Z,10.51
2022-12-28T08:24:36.440Z,10.48
2022-12-28T08:27:07.218Z,10.43
2022-12-28T08:29:35.496Z,10.43
2022-12-28T08:32:06.947Z,10.40
2022-12-28T08:34:34.812Z,10.30
2022-12-28T08:37:03.238Z,10.24
2022-12-28T08:39:34.508Z,10.23
2022-12-28T08:42:05.598Z,10.22
2022-12-28T08:44:36.805Z,10.17
2022-12-28T08:47:05.250Z,10.11
2022-12-28T08:49:36.093Z,10.05
2022-12-28T08:52:08.467Z,9.98
2022-12-28T08:55:00.476Z,9.92
2022-12-28T08:57:33.727Z,9.85
2022-12-28T09:00:02.115Z,9.77
2022-12-28T09:02:38.030Z,9.70
2022-12-28T09:05:06.888Z,9.62
2022-12-28T09:07:37.893Z,9.59
2022-12-28T09:10:06.656Z,9.53
2022-12-28T09:12:37.491Z,9.50
2022-12-28T09:15:06.272Z,9.46
2022-12-28T09:17:36.902Z,9.42
2022-12-28T09:20:08.637Z,9.39
2022-12-28T09:22:39.301Z,9.34
2022-12-28T09:25:08.089Z,9.30
2022-12-28T09:27:39.251Z,9.25
2022-12-28T09:30:08.737Z,9.19
2022-12-28T09:32:37.010Z,9.16
2022-12-28T09:35:05.605Z,9.13
2022-12-28T09:37:37.213Z,9.08
2022-12-28T09:40:10.667Z,9.05
2022-12-28T09:42:47.598Z,9.01
2022-12-28T09:45:20.238Z,8.96
2022-12-28T09:48:04.352Z,8.95
2022-12-28T09:50:35.883Z,8.89
2022-12-28T09:53:06.847Z,8.85
2022-12-28T09:55:46.058Z,8.85
2022-12-28T09:58:19.329Z,8.84
2022-12-28T10:00:56.061Z,8.82
2022-12-28T10:03:30.238Z,8.81
2022-12-28T10:06:01.903Z,8.77
2022-12-28T10:08:33.470Z,8.72
2022-12-28T10:11:03.793Z,8.72
2022-12-28T10:13:56.898Z,8.78
2022-12-28T10:16:32.422Z,8.77
2022-12-28T10:19:09.101Z,8.77
2022-12-28T10:21:37.742Z,8.74
2022-12-28T10:27:00.476Z,8.73
2022-12-28T10:29:29.464Z,8.71
2022-12-28T10:32:07.463Z,8.69
2022-12-28T10:34:37.607Z,8.71
2022-12-28T10:37:16.119Z,8.77
2022-12-28T10:40:02.249Z,8.81
2022-12-28T10:42:36.407Z,8.75
2022-12-28T10:45:17.640Z,8.66
2022-12-28T10:47:49.935Z,8.56
2022-12-28T10:50:43.707Z,8.52
2022-12-28T10:53:21.697Z,8.46
2022-12-28T10:55:53.025Z,8.41
2022-12-28T10:58:31.300Z,8.37
2022-12-28T11:01:14.902Z,8.34
2022-12-28T11:04:06.983Z,8.30
2022-12-28T11:06:37.793Z,8.28
2022-12-28T11:09:17.607Z,8.26
2022-12-28T11:11:47.488Z,8.24
2022-12-28T11:14:38.872Z,8.26
2022-12-28T11:17:38.722Z,8.24
2022-12-28T11:20:37.392Z,8.26
2022-12-28T11:23:10.299Z,8.22
2022-12-28T11:25:38.865Z,8.19
2022-12-28T11:28:22.749Z,8.19
2022-12-28T11:30:57.800Z,8.20
2022-12-28T11:33:39.961Z,8.28
2022-12-28T11:36:16.374Z,8.38
2022-12-28T11:38:47.121Z,8.34
2022-12-28T11:41:36.196Z,8.31
2022-12-28T11:44:06.059Z,8.25
2022-12-28T11:46:38.659Z,8.26
2022-12-28T11:49:28.566Z,8.24
2022-12-28T11:52:18.415Z,8.24
2022-12-28T11:54:55.998Z,8.20
2022-12-28T11:57:40.687Z,8.17
2022-12-28T12:00:46.007Z,8.13
2022-12-28T12:03:14.418Z,8.08
2022-12-28T12:05:52.960Z,8.06
2022-12-28T12:08:24.364Z,8.02
2022-12-28T12:11:41.484Z,8.01
2022-12-28T12:14:10.047Z,7.94
2022-12-28T12:17:06.312Z,7.95
2022-12-28T12:19:39.049Z,7.89
2022-12-28T12:22:19.792Z,7.88
2022-12-28T12:24:59.732Z,7.87
2022-12-28T12:27:53.836Z,7.87
2022-12-28T12:30:26.828Z,7.81
2022-12-28T12:33:07.781Z,7.78
2022-12-28T12:35:51.100Z,7.74
2022-12-28T12:38:56.680Z,7.67
2022-12-28T12:41:58.023Z,7.62
2022-12-28T12:45:16.283Z,7.59
2022-12-28T12:48:17.784Z,7.60
2022-12-28T12:51:00.754Z,7.61
2022-12-28T12:53:32.128Z,7.69
2022-12-28T12:56:38.307Z,7.80
2022-12-28T12:59:26.881Z,7.81
2022-12-28T13:02:13.729Z,8.02
2022-12-28T13:04:46.998Z,8.15
2022-12-28T13:07:30.965Z,8.26
2022-12-28T13:10:07.444Z,8.38
2022-12-28T13:12:37.876Z,8.58
2022-12-28T13:15:12.528Z,8.53
2022-12-28T13:17:43.099Z,8.37
2022-12-28T13:20:25.075Z,8.25
2022-12-28T13:22:57.332Z,8.12
2022-12-28T13:25:35.184Z,8.09
2022-12-28T13:28:05.295Z,8.08
2022-12-28T13:30:41.038Z,8.03
2022-12-28T13:33:22.895Z,7.94
2022-12-28T13:35:51.417Z,7.89
2022-12-28T13:38:19.911Z,7.90
2022-12-28T13:40:53.739Z,7.94
2022-12-28T13:43:56.510Z,7.96
2022-12-28T13:46:28.729Z,7.97
2022-12-28T13:49:00.352Z,8.02
2022-12-28T13:51:29.272Z,8.05
2022-12-28T13:54:02.376Z,8.08
2022-12-28T13:56:42.321Z,8.11
2022-12-28T13:59:15.350Z,8.13
2022-12-28T14:01:56.177Z,8.12
2022-12-28T14:04:52.277Z,8.10
2022-12-28T14:07:18.224Z,8.12
2022-12-28T14:09:47.860Z,8.08
2022-12-28T14:12:17.520Z,8.07
2022-12-28T14:14:50.750Z,8.10
2022-12-28T14:17:20.106Z,8.13
2022-12-28T14:19:52.872Z,8.17
2022-12-28T14:22:30.202Z,8.17
2022-12-28T14:25:11.478Z,8.19
2022-12-28T14:28:07.861Z,8.33
2022-12-28T14:30:44.740Z,8.43
2022-12-28T14:33:24.983Z,8.33
2022-12-28T14:35:58.195Z,8.29
2022-12-28T14:38:33.649Z,8.21
2022-12-28T14:41:04.160Z,8.17
2022-12-28T14:43:41.525Z,8.07
2022-12-28T14:46:32.433Z,8.02
2022-12-28T14:49:29.948Z,8.00
2022-12-28T14:52:10.103Z,8.03
2022-12-28T14:54:48.545Z,8.06
2022-12-28T14:57:33.701Z,8.05
2022-12-28T15:00:21.770Z,8.00
2022-12-28T15:02:51.093Z,7.93
2022-12-28T15:05:55.432Z,7.96
2022-12-28T15:08:24.009Z,7.99
2022-12-28T15:10:55.727Z,7.88
2022-12-28T15:13:25.874Z,7.82
2022-12-28T15:16:07.445Z,7.82
2022-12-28T15:18:35.683Z,7.82
2022-12-28T15:21:07.320Z,7.85
2022-12-28T15:23:35.759Z,7.85
2022-12-28T15:26:11.825Z,7.74
2022-12-28T15:28:40.968Z,7.73
2022-12-28T15:31:12.588Z,7.75
2022-12-28T15:33:41.008Z,7.81
2022-12-28T15:36:17.813Z,7.78
2022-12-28T15:39:00.339Z,7.69
2022-12-28T15:41:48.009Z,7.56
2022-12-28T15:44:19.339Z,7.47
2022-12-28T15:46:50.793Z,7.41
2022-12-28T15:49:19.997Z,7.41
2022-12-28T15:51:48.452Z,7.48
2022-12-28T15:54:16.766Z,7.53
2022-12-28T15:56:45.243Z,7.60
2022-12-28T15:59:15.781Z,7.70
2022-12-28T16:01:45.938Z,7.82
2022-12-28T16:04:15.187Z,7.91
2022-12-28T16:06:44.952Z,8.03
2022-12-28T16:09:15.039Z,8.17
2022-12-28T16:11:43.818Z,8.32
2022-12-28T16:14:17.525Z,8.49
2022-12-28T16:16:54.251Z,8.68
2022-12-28T16:19:23.007Z,8.85
2022-12-28T16:22:00.716Z,8.99
2022-12-28T16:24:41.320Z,9.12
2022-12-28T16:27:12.792Z,9.27
2022-12-28T16:29:41.202Z,9.41
2022-12-28T16:32:12.720Z,9.55
2022-12-28T16:34:40.612Z,9.70
2022-12-28T16:37:11.877Z,9.87
2022-12-28T16:39:43.358Z,10.09
2022-12-28T16:42:12.658Z,10.27
2022-12-28T16:44:41.182Z,10.43
2022-12-28T16:47:47.817Z,10.59
2022-12-28T16:50:42.951Z,10.74
2022-12-28T16:53:41.572Z,10.80
2022-12-28T17:00:09.910Z,10.80
2022-12-28T17:02:41.302Z,10.88
2022-12-28T17:05:48.139Z,11.01
2022-12-28T17:08:42.401Z,11.27
2022-12-28T17:11:14.026Z,11.44
2022-12-28T17:13:43.574Z,11.51
2022-12-28T17:16:46.280Z,11.59
2022-12-28T17:19:43.845Z,11.78
2022-12-28T17:22:12.285Z,11.92
2022-12-28T17:24:44.337Z,12.20
2022-12-28T17:27:42.188Z,12.58
2022-12-28T17:30:34.155Z,12.71
2022-12-28T17:33:12.519Z,12.80
2022-12-28T17:35:42.946Z,13.10
2022-12-28T17:42:41.064Z,13.81
2022-12-28T17:45:44.937Z,13.91
2022-12-28T17:48:45.919Z,13.91
2022-12-28T17:51:42.991Z,14.11
2022-12-28T17:55:25.588Z,14.39
2022-12-28T17:57:44.702Z,14.58
2022-12-28T18:00:45.291Z,14.74
2022-12-28T18:03:42.597Z,14.85
2022-12-28T18:06:12.947Z,14.79
2022-12-28T18:08:44.606Z,14.66
2022-12-28T18:11:42.717Z,14.63
2022-12-28T18:14:40.830Z,14.53
2022-12-28T18:17:12.396Z,14.37
2022-12-28T18:19:43.602Z,14.21
2022-12-28T18:22:17.857Z,14.31
2022-12-28T18:24:46.124Z,14.33
2022-12-28T18:27:47.074Z,14.34
2022-12-28T18:30:35.488Z,14.32
2022-12-28T18:36:21.838Z,13.92
2022-12-28T18:38:50.663Z,13.93
2022-12-28T18:41:34.173Z,13.97
2022-12-28T18:44:08.757Z,13.87
2022-12-28T18:46:37.266Z,13.97
2022-12-28T18:49:23.253Z,13.99
2022-12-28T18:51:51.778Z,13.97
2022-12-28T18:54:44.245Z,14.01
2022-12-28T18:57:12.562Z,13.92
2022-12-28T18:59:43.614Z,13.99
2022-12-28T19:02:19.433Z,13.98
2022-12-28T19:04:48.829Z,13.90
2022-12-28T19:07:24.028Z,13.90
2022-12-28T19:10:13.014Z,13.86
2022-12-28T19:12:45.173Z,13.93
2022-12-28T19:15:38.740Z,13.91
2022-12-28T19:18:47.337Z,13.84
2022-12-28T19:21:35.211Z,13.83
2022-12-28T19:24:21.816Z,13.81
2022-12-28T19:26:50.340Z,13.76
2022-12-28T19:29:53.641Z,13.89
2022-12-28T19:32:22.174Z,13.98
2022-12-28T19:34:50.548Z,13.93
2022-12-28T19:37:27.952Z,13.87
2022-12-28T19:39:57.952Z,13.86
2022-12-28T19:42:45.570Z,13.86
2022-12-28T19:45:20.754Z,13.83
2022-12-28T19:47:49.023Z,13.82
2022-12-28T19:56:13.537Z,13.85
2022-12-28T19:58:46.398Z,13.97
2022-12-28T20:01:18.993Z,13.93
2022-12-28T20:03:49.230Z,13.79
2022-12-28T20:06:25.549Z,13.65
2022-12-28T20:08:57.771Z,13.58
2022-12-28T20:11:26.641Z,13.60
2022-12-28T20:16:45.479Z,13.42
2022-12-28T20:19:17.253Z,13.33
2022-12-28T20:21:50.287Z,13.24
2022-12-28T20:24:46.440Z,13.20
2022-12-28T20:27:58.128Z,13.21
2022-12-28T20:34:45.530Z,13.25
2022-12-28T20:37:53.213Z,13.31
2022-12-28T20:40:25.652Z,13.29
2022-12-28T20:54:16.570Z,13.13
2022-12-28T20:56:55.125Z,13.03
2022-12-28T20:59:48.228Z,13.00
2022-12-28T21:02:31.958Z,13.02
2022-12-28T21:05:47.460Z,13.15
2022-12-28T21:08:18.549Z,13.16
2022-12-28T21:10:52.123Z,13.10
2022-12-28T21:13:26.270Z,13.05
2022-12-28T21:18:50.640Z,13.12
2022-12-28T21:21:47.236Z,13.12
2022-12-28T21:24:22.941Z,13.11
2022-12-28T21:26:51.313Z,13.16
2022-12-28T21:29:52.200Z,13.20
2022-12-28T21:35:33.902Z,13.18
2022-12-28T22:30:37.658Z,13.50
2022-12-28T22:35:53.394Z,13.57
2022-12-28T22:38:54.739Z,13.57
2022-12-28T22:41:30.098Z,13.58
2022-12-28T22:45:08.441Z,13.61
2022-12-28T22:52:43.330Z,13.60
2022-12-28T23:00:54.666Z,13.57
2022-12-28T23:07:22.366Z,13.57
2022-12-28T23:11:20.848Z,13.56
2022-12-28T23:17:00.349Z,13.56
2022-12-28T23:22:59.632Z,13.55
2022-12-28T23:29:01.811Z,13.55
2022-12-28T23:36:03.411Z,13.55
2022-12-28T23:38:55.452Z,13.52
2022-12-28T23:41:51.154Z,13.49
2022-12-28T23:44:52.528Z,13.47
2022-12-28T23:47:24.577Z,13.45
2022-12-28T23:49:58.225Z,13.40
2022-12-28T23:52:59.630Z,13.37
2022-12-28T23:56:02.938Z,13.36
2022-12-28T23:58:52.436Z,13.33
